Time;durP1;ratioP1;P1;durP2;ratioP2;P2;SDS_P1;SDS_P2;PMS_P1;PMS_P2;Temp;Humidity;BMP_temperature;BMP_pressure;BME280_temperature;BME280_humidity;BME280_pressure;Samples;Min_cycle;Max_cycle;Signal;HPM_P1;HPM_P2
2022/10/13 00:00:41;;;;;;;13.75;12.30;;;9.60;99.90;;;;;;4995373;28;94589;-35
2022/10/13 00:03:08;;;;;;;20.67;12.65;;;9.60;99.90;;;;;;4995970;28;95293;-30
2022/10/13 00:05:34;;;;;;;15.50;13.88;;;9.60;99.90;;;;;;4996991;28;94075;-31
2022/10/13 00:08:00;;;;;;;24.25;14.73;;;9.60;99.90;;;;;;4995404;28;93083;-33
2022/10/13 00:10:26;;;;;;;20.33;13.48;;;9.60;99.90;;;;;;4996297;28;94967;-34
2022/10/13 00:12:52;;;;;;;19.15;14.65;;;9.60;99.90;;;;;;4995458;28;94146;-33
2022/10/13 00:15:18;;;;;;;16.38;12.38;;;9.60;99.90;;;;;;4996314;28;93359;-31
2022/10/13 00:17:44;;;;;;;23.00;14.98;;;9.60;99.90;;;;;;4995938;28;91819;-31
2022/10/13 00:20:10;;;;;;;27.00;15.55;;;9.50;99.90;;;;;;4981437;28;95725;-32
2022/10/13 00:22:36;;;;;;;21.33;14.43;;;9.50;99.90;;;;;;4995838;28;93173;-33
2022/10/13 00:25:02;;;;;;;26.30;15.40;;;9.50;99.90;;;;;;4995587;28;93753;-29
2022/10/13 00:27:28;;;;;;;22.15;13.65;;;9.50;99.90;;;;;;4994960;28;93406;-33
2022/10/13 00:29:53;;;;;;;23.02;13.55;;;9.50;99.90;;;;;;4995893;28;94645;-33
2022/10/13 00:32:19;;;;;;;21.83;12.73;;;9.50;99.90;;;;;;4995246;28;94155;-33
2022/10/13 00:34:44;;;;;;;19.75;15.30;;;9.50;99.90;;;;;;4995436;28;94302;-33
2022/10/13 00:37:10;;;;;;;22.27;13.88;;;9.50;99.90;;;;;;4995572;28;93595;-33
2022/10/13 00:39:36;;;;;;;17.02;15.02;;;9.50;99.90;;;;;;4995146;28;93703;-33
2022/10/13 00:42:03;;;;;;;23.60;16.30;;;9.50;99.90;;;;;;4995315;28;94683;-31
2022/10/13 00:44:56;;;;;;;22.98;16.30;;;9.50;99.90;;;;;;4995051;28;92205;-32
2022/10/13 00:47:23;;;;;;;16.63;13.38;;;9.50;99.90;;;;;;4995084;28;94650;-33
2022/10/13 00:49:49;;;;;;;23.30;15.98;;;9.50;99.90;;;;;;4994478;28;95821;-32
2022/10/13 00:52:16;;;;;;;20.08;13.95;;;9.50;99.90;;;;;;4994751;28;96055;-32
2022/10/13 00:54:43;;;;;;;22.85;15.65;;;9.50;99.90;;;;;;5031019;22;93741;-31
2022/10/13 00:57:09;;;;;;;23.80;15.43;;;9.50;99.90;;;;;;4995231;28;92193;-31
2022/10/13 00:59:36;;;;;;;23.25;15.73;;;9.50;99.90;;;;;;4994907;28;94610;-32
2022/10/13 01:02:02;;;;;;;22.65;13.40;;;9.50;99.90;;;;;;4995148;28;94368;-31
2022/10/13 01:04:33;;;;;;;26.55;17.63;;;9.50;99.90;;;;;;4996105;28;92168;-32
2022/10/13 01:07:00;;;;;;;21.35;14.90;;;9.50;99.90;;;;;;4995357;28;91765;-32
2022/10/13 01:09:25;;;;;;;23.75;15.40;;;9.50;99.90;;;;;;4995102;28;95093;-32
2022/10/13 01:12:12;;;;;;;27.73;14.77;;;9.50;99.90;;;;;;4997928;28;94797;-33
2022/10/13 01:14:53;;;;;;;16.45;14.75;;;9.50;99.90;;;;;;4998625;28;93539;-31
2022/10/13 01:17:52;;;;;;;20.50;16.30;;;9.50;99.90;;;;;;4998461;28;93544;-31
2022/10/13 01:20:27;;;;;;;24.23;16.90;;;9.50;99.90;;;;;;4984769;28;94922;-33
2022/10/13 01:23:25;;;;;;;25.58;16.00;;;9.50;99.90;;;;;;4997949;28;95183;-30
2022/10/13 01:26:11;;;;;;;25.80;14.55;;;9.50;99.90;;;;;;4998612;28;93973;-32
2022/10/13 01:29:13;;;;;;;21.83;15.82;;;9.50;99.90;;;;;;4999077;28;93215;-30
2022/10/13 01:32:05;;;;;;;21.35;17.13;;;9.50;99.90;;;;;;4997569;28;94633;-32
2022/10/13 01:34:43;;;;;;;20.35;15.18;;;9.50;99.90;;;;;;4993935;28;96421;-32
2022/10/13 01:37:14;;;;;;;;;;;9.50;99.90;;;;;;4999109;28;94033;-30
2022/10/13 01:40:04;;;;;;;23.45;19.88;;;9.50;99.90;;;;;;5000415;28;92177;-31
2022/10/13 01:42:43;;;;;;;20.88;16.02;;;9.50;99.90;;;;;;4998208;28;94484;-30
2022/10/13 01:45:13;;;;;;;22.67;16.73;;;9.50;99.90;;;;;;4997812;28;95157;-31
2022/10/13 01:47:41;;;;;;;25.63;16.17;;;9.50;99.90;;;;;;4998361;28;93013;-32
2022/10/13 01:50:07;;;;;;;24.95;18.77;;;9.50;99.90;;;;;;4998382;28;92972;-31
2022/10/13 01:52:37;;;;;;;24.45;15.50;;;9.50;99.90;;;;;;4997733;28;95190;-30
2022/10/13 01:55:09;;;;;;;27.63;17.30;;;9.50;99.90;;;;;;4997689;28;94015;-30
2022/10/13 01:57:38;;;;;;;23.67;17.08;;;9.50;99.90;;;;;;4997233;28;93093;-32
2022/10/13 02:00:13;;;;;;;21.38;15.68;;;9.50;99.90;;;;;;4998082;28;92075;-32
2022/10/13 02:02:45;;;;;;;22.70;17.10;;;9.50;99.90;;;;;;4997419;28;93606;-31
2022/10/13 02:05:25;;;;;;;25.30;15.80;;;9.50;99.90;;;;;;4996906;28;94902;-31
2022/10/13 02:08:02;;;;;;;28.08;16.70;;;9.50;99.90;;;;;;4997074;28;95293;-30
2022/10/13 02:10:40;;;;;;;23.63;18.08;;;9.50;99.90;;;;;;4997596;28;92219;-30
2022/10/13 02:13:09;;;;;;;18.77;16.23;;;9.50;99.90;;;;;;4977927;28;96014;-33
2022/10/13 02:15:44;;;;;;;;;;;9.50;99.90;;;;;;4997495;28;95016;-32
2022/10/13 02:18:12;;;;;;;23.40;17.75;;;9.50;99.90;;;;;;4999512;28;93145;-31
2022/10/13 02:20:40;;;;;;;26.95;17.10;;;9.50;99.90;;;;;;4997008;28;92988;-32
2022/10/13 02:23:09;;;;;;;22.42;15.35;;;9.50;99.90;;;;;;4996996;28;94834;-30
2022/10/13 02:25:36;;;;;;;31.70;18.80;;;9.60;99.90;;;;;;4997197;28;94499;-31
2022/10/13 02:28:02;;;;;;;20.60;16.00;;;9.60;99.90;;;;;;4997778;28;93358;-29
2022/10/13 02:30:29;;;;;;;28.77;17.00;;;9.60;99.90;;;;;;4997156;28;94123;-31
2022/10/13 02:32:55;;;;;;;28.52;18.20;;;9.60;99.90;;;;;;4995687;28;95446;-33
2022/10/13 02:35:21;;;;;;;18.13;14.85;;;9.70;99.90;;;;;;4997253;28;95511;-31
2022/10/13 02:37:46;;;;;;;25.92;16.92;;;9.70;99.90;;;;;;4996884;28;92701;-31
2022/10/13 02:40:13;;;;;;;28.13;17.58;;;9.70;99.90;;;;;;4997005;28;92856;-32
2022/10/13 02:42:38;;;;;;;26.58;18.55;;;9.70;99.90;;;;;;4997369;28;94734;-30
2022/10/13 02:45:04;;;;;;;22.92;16.73;;;9.70;99.90;;;;;;4996873;28;94372;-31
2022/10/13 02:47:30;;;;;;;28.05;17.70;;;9.70;99.90;;;;;;4997692;28;93763;-33
2022/10/13 02:49:56;;;;;;;24.08;17.67;;;9.70;99.90;;;;;;4997443;28;92618;-31
2022/10/13 02:52:21;;;;;;;18.73;16.60;;;9.70;99.90;;;;;;4996596;28;95043;-32
2022/10/13 02:54:47;;;;;;;28.65;18.52;;;9.70;99.90;;;;;;4996154;28;96383;-33
2022/10/13 02:57:12;;;;;;;23.92;16.08;;;9.70;99.90;;;;;;4996427;28;95173;-30
2022/10/13 02:59:38;;;;;;;19.42;16.15;;;9.70;99.90;;;;;;4996896;28;92426;-33
2022/10/13 03:02:03;;;;;;;26.08;17.48;;;9.70;99.90;;;;;;4995938;28;94767;-33
2022/10/13 03:04:29;;;;;;;18.85;15.32;;;9.70;99.90;;;;;;4996824;28;94070;-31
2022/10/13 03:06:55;;;;;;;22.85;16.75;;;9.70;99.90;;;;;;4996772;28;94120;-32
2022/10/13 03:09:20;;;;;;;24.65;17.63;;;9.70;99.90;;;;;;4996830;28;93259;-32
2022/10/13 03:11:46;;;;;;;20.80;16.33;;;9.70;99.90;;;;;;4996565;28;96136;-30
2022/10/13 03:14:12;;;;;;;24.52;18.70;;;9.70;99.90;;;;;;4996300;28;95019;-32
2022/10/13 03:16:37;;;;;;;22.27;15.80;;;9.70;99.90;;;;;;4997221;28;92833;-33
2022/10/13 03:19:03;;;;;;;22.88;16.52;;;9.70;99.90;;;;;;4996408;28;92551;-33
2022/10/13 03:21:29;;;;;;;25.23;17.52;;;9.70;99.90;;;;;;4996289;28;95544;-32
2022/10/13 03:23:55;;;;;;;29.00;19.67;;;9.70;99.90;;;;;;4996543;28;95564;-33
2022/10/13 03:26:20;;;;;;;23.73;17.13;;;9.70;99.90;;;;;;4996298;28;94176;-33
2022/10/13 03:28:50;;;;;;;26.63;18.27;;;9.70;99.90;;;;;;4996199;28;94721;-32
2022/10/13 03:31:16;;;;;;;24.30;17.30;;;9.70;99.90;;;;;;4997072;28;94418;-31
2022/10/13 03:33:42;;;;;;;18.08;16.02;;;9.70;99.90;;;;;;4994977;28;94820;-33
2022/10/13 03:36:11;;;;;;;26.02;18.25;;;9.70;99.90;;;;;;4997053;28;94033;-33
2022/10/13 03:38:36;;;;;;;23.02;18.95;;;9.70;99.90;;;;;;4996871;28;92585;-31
2022/10/13 03:41:07;;;;;;;25.95;16.13;;;9.70;99.90;;;;;;4995671;28;95360;-29
2022/10/13 03:43:33;;;;;;;20.30;15.52;;;9.70;99.90;;;;;;4995980;28;94526;-32
2022/10/13 03:46:01;;;;;;;23.50;15.65;;;9.80;99.90;;;;;;4995664;28;95316;-30
2022/10/13 03:48:27;;;;;;;22.27;18.03;;;9.80;99.90;;;;;;4996459;28;94206;-34
2022/10/13 03:50:53;;;;;;;27.25;18.70;;;9.70;99.90;;;;;;4996387;28;93527;-32
2022/10/13 03:53:19;;;;;;;26.75;18.17;;;9.80;99.90;;;;;;4978216;28;95283;-33
2022/10/13 03:55:49;;;;;;;20.63;16.58;;;9.80;99.90;;;;;;4995993;28;92346;-31
2022/10/13 03:58:15;;;;;;;36.25;19.88;;;9.80;99.90;;;;;;4996556;28;92162;-31
2022/10/13 04:00:41;;;;;;;25.08;17.73;;;9.80;99.90;;;;;;4995612;28;95373;-30
2022/10/13 04:03:06;;;;;;;22.77;16.88;;;9.80;99.90;;;;;;4996657;28;94705;-33
2022/10/13 04:05:33;;;;;;;31.52;20.17;;;9.80;99.90;;;;;;4996315;28;92304;-31
2022/10/13 04:07:58;;;;;;;25.35;17.25;;;9.80;99.90;;;;;;4995325;28;93270;-31
2022/10/13 04:10:24;;;;;;;28.30;18.73;;;9.90;99.90;;;;;;4995324;28;95648;-32
2022/10/13 04:12:50;;;;;;;30.95;18.55;;;9.90;99.90;;;;;;4995227;28;95235;-33
2022/10/13 04:15:15;;;;;;;25.45;19.33;;;9.90;99.90;;;;;;4996467;28;94657;-32
2022/10/13 04:17:41;;;;;;;22.50;16.25;;;9.90;99.90;;;;;;4995118;28;93469;-29
2022/10/13 04:20:07;;;;;;;27.33;16.73;;;9.90;99.90;;;;;;4995361;28;94797;-32
2022/10/13 04:22:33;;;;;;;22.85;17.48;;;9.90;99.90;;;;;;4995778;28;94907;-30
2022/10/13 04:24:58;;;;;;;26.35;20.13;;;9.90;99.90;;;;;;4995158;28;93149;-32
2022/10/13 04:27:25;;;;;;;24.95;19.95;;;9.90;99.90;;;;;;4996939;28;93633;-30
2022/10/13 04:29:51;;;;;;;23.70;19.45;;;9.90;99.90;;;;;;4995023;28;95007;-33
2022/10/13 04:32:17;;;;;;;28.13;19.70;;;9.90;99.90;;;;;;4995393;28;94642;-30
2022/10/13 04:34:42;;;;;;;31.20;20.88;;;9.80;99.90;;;;;;4994899;28;93270;-31
2022/10/13 04:37:08;;;;;;;21.23;18.70;;;9.80;99.90;;;;;;4995857;28;94593;-31
2022/10/13 04:39:33;;;;;;;30.38;19.48;;;9.80;99.90;;;;;;4996268;28;94222;-31
2022/10/13 04:41:59;;;;;;;26.83;20.27;;;9.80;99.90;;;;;;4995119;28;94624;-33
2022/10/13 04:44:25;;;;;;;28.98;20.52;;;9.80;99.90;;;;;;4977404;28;94302;-31
2022/10/13 04:46:50;;;;;;;23.92;20.48;;;9.80;99.90;;;;;;4998449;28;94604;-31
2022/10/13 04:49:16;;;;;;;33.25;22.27;;;9.80;99.90;;;;;;4998759;28;94774;-31
2022/10/13 04:51:42;;;;;;;22.65;18.98;;;9.80;99.90;;;;;;4999280;28;94789;-31
2022/10/13 04:54:08;;;;;;;28.33;22.88;;;9.80;99.90;;;;;;4997878;28;92257;-33
2022/10/13 04:56:34;;;;;;;27.67;19.55;;;9.80;99.90;;;;;;4998560;28;94036;-34
2022/10/13 04:59:00;;;;;;;28.02;20.15;;;9.80;99.90;;;;;;4997441;28;96331;-32
2022/10/13 05:01:26;;;;;;;28.27;24.15;;;9.80;99.90;;;;;;4999135;28;95060;-31
2022/10/13 05:03:54;;;;;;;30.88;23.75;;;9.90;99.90;;;;;;4998237;28;93487;-32
2022/10/13 05:06:24;;;;;;;40.53;23.70;;;9.90;99.90;;;;;;4998255;28;93584;-31
2022/10/13 05:08:51;;;;;;;27.65;20.20;;;9.90;99.90;;;;;;4998091;28;95291;-31
2022/10/13 05:11:18;;;;;;;28.83;18.83;;;9.90;99.90;;;;;;4998079;28;94527;-33
2022/10/13 05:13:44;;;;;;;32.95;20.40;;;9.90;99.90;;;;;;4998912;28;94406;-30
2022/10/13 05:16:13;;;;;;;24.63;18.55;;;9.90;99.90;;;;;;4999203;28;92895;-32
2022/10/13 05:18:38;;;;;;;24.08;19.88;;;9.90;99.90;;;;;;4998466;28;94769;-31
2022/10/13 05:21:09;;;;;;;28.80;19.75;;;9.90;99.90;;;;;;4997703;28;95501;-31
2022/10/13 05:23:35;;;;;;;23.38;18.67;;;9.90;99.90;;;;;;4997405;28;93117;-32
2022/10/13 05:26:03;;;;;;;21.60;19.33;;;9.90;99.90;;;;;;4998414;28;93788;-34
2022/10/13 05:28:29;;;;;;;25.20;19.38;;;9.90;99.90;;;;;;4998502;28;95317;-33
2022/10/13 05:30:55;;;;;;;21.55;18.85;;;9.90;99.90;;;;;;4997767;28;95945;-33
2022/10/13 05:33:20;;;;;;;27.45;18.88;;;9.90;99.90;;;;;;4998407;28;93335;-30
2022/10/13 05:35:46;;;;;;;29.08;22.40;;;9.90;99.90;;;;;;4998057;28;92361;-31
2022/10/13 05:38:11;;;;;;;20.13;17.35;;;9.90;99.90;;;;;;4998112;28;94855;-31
2022/10/13 05:40:37;;;;;;;25.30;18.60;;;9.90;99.90;;;;;;4984780;28;94442;-33
2022/10/13 05:43:03;;;;;;;32.15;21.00;;;10.00;99.90;;;;;;4997711;28;93567;-32
2022/10/13 05:45:31;;;;;;;32.50;18.80;;;9.90;99.90;;;;;;4998373;28;93012;-32
2022/10/13 05:47:57;;;;;;;32.40;23.98;;;9.90;99.90;;;;;;4997550;28;96937;-30
2022/10/13 05:50:23;;;;;;;23.98;17.85;;;9.90;99.90;;;;;;4997580;28;95607;-33
2022/10/13 05:52:50;;;;;;;30.48;21.40;;;9.90;99.90;;;;;;4997842;28;94507;-33
2022/10/13 05:55:17;;;;;;;27.27;20.02;;;9.90;99.90;;;;;;4997241;28;94198;-32
2022/10/13 05:57:49;;;;;;;32.43;23.33;;;9.90;99.90;;;;;;4997671;28;95080;-31
2022/10/13 06:00:17;;;;;;;22.20;16.63;;;9.90;99.90;;;;;;4998022;28;94442;-35
2022/10/13 06:02:54;;;;;;;20.83;16.57;;;9.90;99.90;;;;;;4997800;28;92766;-31
2022/10/13 06:05:22;;;;;;;24.08;19.50;;;9.90;99.90;;;;;;4997879;28;91701;-31
2022/10/13 06:07:48;;;;;;;20.40;18.20;;;9.90;99.90;;;;;;4996719;28;94307;-32
2022/10/13 06:10:14;;;;;;;29.02;21.90;;;9.90;99.90;;;;;;4997905;28;94960;-30
2022/10/13 06:12:40;;;;;;;25.55;19.88;;;9.90;99.90;;;;;;4996643;28;94252;-34
2022/10/13 06:15:06;;;;;;;26.35;20.92;;;9.90;99.90;;;;;;4996578;28;94511;-30
2022/10/13 06:17:35;;;;;;;30.45;22.40;;;9.90;99.90;;;;;;4997685;28;94881;-31
2022/10/13 06:20:01;;;;;;;30.10;22.05;;;9.90;99.90;;;;;;4996072;28;95035;-32
2022/10/13 06:22:26;;;;;;;33.72;22.42;;;9.90;99.90;;;;;;4997151;28;95629;-34
2022/10/13 06:24:52;;;;;;;32.25;22.83;;;9.90;99.90;;;;;;4997206;28;94322;-31
2022/10/13 06:27:17;;;;;;;28.27;21.35;;;9.90;99.90;;;;;;4996689;28;95953;-31
2022/10/13 06:29:43;;;;;;;28.08;22.23;;;9.90;99.90;;;;;;4997900;28;94944;-33
2022/10/13 06:32:09;;;;;;;35.80;24.45;;;9.90;99.90;;;;;;4997784;28;95042;-31
2022/10/13 06:34:34;;;;;;;30.02;23.25;;;9.90;99.90;;;;;;5001860;28;92614;-34
2022/10/13 06:37:00;;;;;;;28.42;18.80;;;10.00;99.90;;;;;;4995886;28;96209;-34
2022/10/13 06:39:25;;;;;;;30.90;20.65;;;10.00;99.90;;;;;;4996987;28;94818;-34
2022/10/13 06:41:51;;;;;;;26.15;20.80;;;10.00;99.90;;;;;;4996313;28;94298;-32
2022/10/13 06:44:17;;;;;;;23.98;18.80;;;10.00;99.90;;;;;;4996651;28;92442;-32
2022/10/13 06:46:42;;;;;;;25.80;20.33;;;10.10;99.90;;;;;;4998385;28;93624;-31
2022/10/13 06:49:09;;;;;;;26.23;19.20;;;10.10;99.90;;;;;;5003858;28;94379;-33
2022/10/13 06:51:35;;;;;;;26.83;21.25;;;10.10;99.90;;;;;;4996962;28;93352;-31
2022/10/13 06:54:00;;;;;;;27.20;20.38;;;10.10;99.90;;;;;;4996092;28;93550;-31
2022/10/13 06:56:27;;;;;;;27.88;21.65;;;10.10;99.90;;;;;;4997674;28;95933;-31
2022/10/13 06:58:53;;;;;;;25.73;19.58;;;10.10;99.90;;;;;;4996408;28;94834;-33
2022/10/13 07:01:20;;;;;;;34.35;20.38;;;10.10;99.90;;;;;;4986090;28;93635;-32
2022/10/13 07:03:48;;;;;;;31.00;23.75;;;10.10;99.90;;;;;;4995734;28;94501;-32
2022/10/13 07:06:14;;;;;;;28.02;21.48;;;10.10;99.90;;;;;;4996450;28;94508;-32
2022/10/13 07:08:40;;;;;;;30.40;20.92;;;10.10;99.90;;;;;;4995526;28;94433;-33
2022/10/13 07:11:11;;;;;;;33.00;24.02;;;10.20;99.90;;;;;;4996496;28;93492;-33
2022/10/13 07:13:38;;;;;;;32.92;27.20;;;10.20;99.90;;;;;;4996356;28;94576;-29
2022/10/13 07:16:05;;;;;;;28.88;24.08;;;10.30;99.90;;;;;;4995473;28;94075;-33
2022/10/13 07:18:31;;;;;;;30.58;23.00;;;10.40;99.90;;;;;;4996556;28;96153;-33
2022/10/13 07:20:59;;;;;;;36.45;25.88;;;10.40;99.90;;;;;;4996229;28;94291;-32
2022/10/13 07:23:26;;;;;;;34.63;25.30;;;10.50;99.90;;;;;;4994027;28;93175;-34
2022/10/13 07:25:52;;;;;;;29.98;22.55;;;10.60;99.90;;;;;;4985461;28;96063;-33
2022/10/13 07:28:18;;;;;;;39.08;30.90;;;10.60;99.90;;;;;;4994351;28;95262;-32
2022/10/13 07:30:44;;;;;;;46.92;28.80;;;10.70;99.90;;;;;;4993805;28;93741;-34
2022/10/13 07:33:09;;;;;;;28.05;24.13;;;10.70;99.90;;;;;;4975793;28;92760;-32
2022/10/13 07:35:39;;;;;;;28.42;20.60;;;10.70;99.90;;;;;;4993564;28;94780;-32
2022/10/13 07:38:05;;;;;;;21.85;19.42;;;10.70;99.90;;;;;;4987291;28;94152;-34
2022/10/13 07:40:31;;;;;;;26.35;21.92;;;10.70;99.90;;;;;;4994348;28;92548;-34
2022/10/13 07:42:56;;;;;;;29.00;22.55;;;10.80;99.90;;;;;;4994418;28;94040;-32
2022/10/13 07:45:23;;;;;;;26.83;21.85;;;10.80;99.90;;;;;;4993385;28;94619;-32
2022/10/13 07:47:48;;;;;;;30.52;22.58;;;10.80;99.90;;;;;;4993814;28;93703;-31
2022/10/13 07:50:14;;;;;;;36.50;22.95;;;10.80;99.90;;;;;;4993709;28;94173;-32
2022/10/13 07:52:40;;;;;;;31.85;22.65;;;10.90;99.90;;;;;;4993505;28;94350;-34
2022/10/13 07:55:06;;;;;;;41.20;22.75;;;10.90;99.90;;;;;;4992516;28;94474;-31
2022/10/13 07:57:31;;;;;;;29.05;22.30;;;11.00;99.90;;;;;;4993209;28;94488;-31
2022/10/13 07:59:57;;;;;;;31.02;23.02;;;11.00;99.90;;;;;;4993671;28;94508;-34
2022/10/13 08:02:23;;;;;;;31.88;21.80;;;11.10;99.90;;;;;;4993834;28;93863;-34
2022/10/13 08:04:48;;;;;;;29.83;23.50;;;11.10;99.90;;;;;;4993260;28;93725;-34
2022/10/13 08:07:15;;;;;;;35.33;24.90;;;11.20;99.90;;;;;;4993729;28;94797;-32
2022/10/13 08:09:41;;;;;;;30.23;23.13;;;11.20;99.90;;;;;;4993634;28;93661;-31
2022/10/13 08:12:07;;;;;;;35.15;21.98;;;11.30;99.90;;;;;;4994127;28;93640;-33
2022/10/13 08:14:33;;;;;;;27.52;23.48;;;11.40;99.90;;;;;;4992258;28;96886;-32
2022/10/13 08:17:00;;;;;;;30.02;23.92;;;11.40;99.90;;;;;;4993075;28;95052;-33
2022/10/13 08:19:27;;;;;;;27.90;22.65;;;11.50;99.90;;;;;;4994768;28;92516;-31
2022/10/13 08:21:53;;;;;;;25.15;20.95;;;11.50;99.90;;;;;;4997432;28;94633;-31
2022/10/13 08:24:21;;;;;;;34.28;22.23;;;11.60;99.90;;;;;;4996787;28;94707;-31
2022/10/13 08:26:47;;;;;;;29.03;23.97;;;11.70;99.90;;;;;;4996639;28;94385;-34
2022/10/13 08:29:14;;;;;;;29.35;20.45;;;11.80;99.90;;;;;;4997606;28;93324;-32
2022/10/13 08:31:40;;;;;;;32.20;23.98;;;11.90;99.90;;;;;;4997557;28;93438;-31
2022/10/13 08:34:06;;;;;;;23.45;20.88;;;12.00;99.90;;;;;;4997667;28;95222;-31
2022/10/13 08:36:31;;;;;;;33.60;24.30;;;12.10;99.90;;;;;;4996216;28;94830;-34
2022/10/13 08:38:57;;;;;;;32.45;23.05;;;12.20;99.90;;;;;;4996300;28;94207;-31
2022/10/13 08:41:29;;;;;;;31.27;20.90;;;12.30;99.90;;;;;;4997525;28;94496;-32
2022/10/13 08:44:00;;;;;;;28.33;21.50;;;12.40;99.90;;;;;;4996434;28;94696;-32
2022/10/13 08:46:54;;;;;;;32.38;23.23;;;12.50;99.90;;;;;;4996751;28;93218;-34
2022/10/13 08:49:19;;;;;;;31.25;22.52;;;12.60;99.90;;;;;;4996782;28;92678;-32
2022/10/13 08:51:45;;;;;;;29.50;21.52;;;12.70;99.90;;;;;;4995949;28;94844;-31
2022/10/13 08:54:14;;;;;;;29.35;22.77;;;12.80;99.90;;;;;;4996777;28;96342;-33
2022/10/13 08:56:41;;;;;;;24.73;20.58;;;12.90;99.90;;;;;;4996387;28;94912;-35
2022/10/13 08:59:13;;;;;;;27.05;22.08;;;13.00;99.90;;;;;;4996872;28;94368;-33
2022/10/13 09:01:40;;;;;;;27.30;21.63;;;13.00;99.90;;;;;;4996797;28;92824;-32
2022/10/13 09:04:27;;;;;;;35.60;21.55;;;13.10;99.90;;;;;;4995396;28;96428;-32
2022/10/13 09:06:57;;;;;;;28.13;21.75;;;13.10;99.90;;;;;;4995940;28;94986;-32
2022/10/13 09:09:23;;;;;;;25.00;19.45;;;13.10;99.90;;;;;;4980155;28;93405;-33
2022/10/13 09:11:50;;;;;;;28.20;22.50;;;13.10;99.90;;;;;;4986155;28;93104;-34
2022/10/13 09:14:26;;;;;;;30.17;21.65;;;13.00;99.90;;;;;;4994493;28;95163;-31
2022/10/13 09:16:54;;;;;;;26.92;21.85;;;13.00;99.90;;;;;;4994890;28;94650;-33
2022/10/13 09:19:28;;;;;;;28.65;21.10;;;13.00;99.90;;;;;;4995799;28;93549;-34
2022/10/13 09:21:56;;;;;;;29.33;21.95;;;12.90;99.90;;;;;;4988226;28;93859;-32
2022/10/13 09:24:24;;;;;;;27.30;22.25;;;13.00;99.90;;;;;;4996333;28;94552;-29
2022/10/13 09:27:02;;;;;;;;;;;13.00;99.90;;;;;;4995534;28;94912;-32
2022/10/13 09:29:28;;;;;;;26.23;20.48;;;13.00;99.90;;;;;;4997396;28;93165;-31
2022/10/13 09:32:22;;;;;;;31.50;20.48;;;13.10;99.90;;;;;;4995709;28;94555;-30
2022/10/13 09:34:48;;;;;;;30.27;21.38;;;13.10;99.90;;;;;;4994612;28;94670;-31
2022/10/13 09:37:24;;;;;;;31.42;22.08;;;13.10;99.90;;;;;;4995415;28;94994;-32
2022/10/13 09:40:18;;;;;;;33.70;21.65;;;13.10;99.90;;;;;;4996032;28;93707;-32
2022/10/13 09:42:50;;;;;;;27.05;21.45;;;13.10;99.90;;;;;;4984673;28;92827;-33
2022/10/13 09:45:20;;;;;;;29.65;21.50;;;13.20;99.90;;;;;;4995941;28;94688;-31
2022/10/13 09:47:51;;;;;;;30.55;20.15;;;13.20;99.90;;;;;;4996051;28;96404;-30
2022/10/13 09:50:21;;;;;;;31.27;21.73;;;13.30;99.90;;;;;;4995998;28;93616;-31
2022/10/13 09:52:47;;;;;;;33.83;20.73;;;13.30;99.90;;;;;;4995701;28;93333;-31
2022/10/13 09:55:34;;;;;;;33.22;18.75;;;13.40;99.90;;;;;;4994075;28;95274;-33
2022/10/13 09:58:16;;;;;;;26.60;20.95;;;13.40;99.90;;;;;;4984510;28;94399;-31
2022/10/13 10:00:42;;;;;;;30.27;19.75;;;13.50;99.90;;;;;;4995596;28;93290;-30
2022/10/13 10:03:21;;;;;;;25.52;19.50;;;13.50;99.90;;;;;;4995355;28;94482;-33
2022/10/13 10:05:54;;;;;;;30.67;20.40;;;13.50;99.90;;;;;;4994794;28;94924;-31
2022/10/13 10:08:30;;;;;;;27.88;20.13;;;13.50;99.90;;;;;;4995392;28;94677;-33
2022/10/13 10:11:02;;;;;;;25.02;18.92;;;13.50;99.90;;;;;;4995040;28;93795;-34
2022/10/13 10:13:27;;;;;;;28.00;19.58;;;13.50;99.90;;;;;;4996410;28;93516;-34
2022/10/13 10:16:18;;;;;;;29.58;20.27;;;13.50;99.90;;;;;;4994500;28;95065;-32
2022/10/13 10:18:49;;;;;;;31.63;21.63;;;13.60;99.90;;;;;;4995356;28;95318;-33
2022/10/13 10:21:48;;;;;;;29.85;21.40;;;13.60;99.90;;;;;;4995462;28;94238;-33
2022/10/13 10:24:36;;;;;;;24.60;20.45;;;13.60;99.90;;;;;;4995912;28;93148;-31
2022/10/13 10:27:20;;;;;;;26.52;19.73;;;13.60;99.90;;;;;;4994843;28;96245;-34
2022/10/13 10:30:02;;;;;;;27.75;20.00;;;13.60;99.90;;;;;;4994199;28;94614;-35
2022/10/13 10:32:52;;;;;;;26.05;18.67;;;13.60;99.90;;;;;;4995648;28;93203;-33
2022/10/13 10:35:37;;;;;;;30.48;19.15;;;13.50;99.90;;;;;;4995527;28;94722;-32
2022/10/13 10:38:27;;;;;;;23.90;19.38;;;13.60;99.90;;;;;;4995040;28;93504;-32
2022/10/13 10:41:29;;;;;;;25.35;19.90;;;13.60;99.90;;;;;;4982796;28;94820;-32
2022/10/13 10:44:25;;;;;;;31.55;20.98;;;13.60;99.90;;;;;;4993978;28;94610;-34
2022/10/13 10:46:58;;;;;;;27.92;20.27;;;13.60;99.90;;;;;;4996395;28;94176;-33
2022/10/13 10:49:33;;;;;;;29.95;21.27;;;13.70;99.90;;;;;;4994666;28;95728;-35
2022/10/13 10:52:04;;;;;;;26.00;19.88;;;13.80;99.90;;;;;;4996604;28;95079;-32
2022/10/13 10:55:08;;;;;;;38.85;25.98;;;13.90;99.90;;;;;;4996649;28;94571;-32
2022/10/13 10:57:46;;;;;;;25.40;20.50;;;14.00;99.90;;;;;;4995920;28;92587;-33
2022/10/13 11:00:18;;;;;;;22.83;18.77;;;14.00;99.90;;;;;;4996137;28;94762;-34
2022/10/13 11:02:53;;;;;;;35.17;22.88;;;14.00;99.90;;;;;;4995193;28;94489;-33
2022/10/13 11:05:19;;;;;;;30.85;20.23;;;14.00;99.90;;;;;;4994975;28;94790;-31
2022/10/13 11:07:45;;;;;;;25.95;20.67;;;13.90;99.90;;;;;;4996161;28;91419;-34
2022/10/13 11:10:15;;;;;;;28.67;19.92;;;13.90;99.90;;;;;;4995999;28;96153;-33
2022/10/13 11:12:49;;;;;;;26.67;20.48;;;13.90;99.90;;;;;;4995835;28;94270;-32
2022/10/13 11:15:26;;;;;;;26.50;22.63;;;13.90;99.90;;;;;;4995697;28;94987;-33
2022/10/13 11:17:52;;;;;;;27.10;21.55;;;13.90;99.90;;;;;;4996435;28;92237;-34
2022/10/13 11:20:20;;;;;;;24.15;19.35;;;13.80;99.90;;;;;;4995953;28;95134;-34
2022/10/13 11:22:58;;;;;;;;;;;13.80;99.90;;;;;;4996282;28;94592;-33
2022/10/13 11:25:39;;;;;;;28.45;21.00;;;13.80;99.90;;;;;;4998389;28;93558;-35
2022/10/13 11:28:20;;;;;;;27.73;19.92;;;13.80;99.90;;;;;;4995928;28;93171;-32
2022/10/13 11:30:49;;;;;;;22.60;18.92;;;13.80;99.90;;;;;;4995513;28;94585;-32
2022/10/13 11:33:36;;;;;;;22.27;19.85;;;13.80;99.90;;;;;;4996562;28;94512;-31
2022/10/13 11:36:27;;;;;;;39.17;22.50;;;13.80;99.90;;;;;;4996300;28;94543;-31
2022/10/13 11:39:00;;;;;;;24.63;22.00;;;13.80;99.90;;;;;;5002220;28;92227;-32
2022/10/13 11:41:33;;;;;;;32.13;24.45;;;13.70;99.90;;;;;;4995263;28;95540;-34
2022/10/13 11:44:29;;;;;;;32.88;24.00;;;13.70;99.90;;;;;;4995301;28;96559;-33
2022/10/13 11:47:14;;;;;;;28.38;21.75;;;13.70;99.90;;;;;;4996523;28;93552;-34
2022/10/13 11:50:01;;;;;;;32.33;22.95;;;13.70;99.90;;;;;;4994930;28;92307;-35
2022/10/13 11:52:39;;;;;;;35.33;22.77;;;13.70;99.90;;;;;;4995874;28;93785;-31
2022/10/13 11:55:18;;;;;;;35.00;26.58;;;13.70;99.90;;;;;;4994909;28;94777;-32
2022/10/13 11:57:44;;;;;;;29.40;24.00;;;13.70;99.90;;;;;;4978325;28;92315;-33
2022/10/13 12:00:15;;;;;;;27.73;23.20;;;13.70;99.90;;;;;;4996245;28;91437;-31
2022/10/13 12:02:52;;;;;;;33.63;24.77;;;13.70;99.90;;;;;;4995107;28;96645;-35
2022/10/13 12:05:27;;;;;;;29.15;24.17;;;13.70;99.90;;;;;;4995104;28;94020;-33
2022/10/13 12:07:57;;;;;;;33.67;24.33;;;13.70;99.90;;;;;;4995648;28;94692;-32
2022/10/13 12:10:30;;;;;;;30.70;23.50;;;13.70;99.90;;;;;;4996215;28;94205;-32
2022/10/13 12:12:57;;;;;;;26.08;22.02;;;13.60;99.90;;;;;;4995295;28;93533;-35
2022/10/13 12:15:30;;;;;;;32.10;24.65;;;13.60;99.90;;;;;;4996063;28;94674;-35
2022/10/13 12:17:56;;;;;;;31.15;23.75;;;13.60;99.90;;;;;;4994796;28;93302;-33
2022/10/13 12:20:24;;;;;;;27.95;22.65;;;13.60;99.90;;;;;;4995777;28;94616;-33
2022/10/13 12:22:52;;;;;;;31.13;22.85;;;13.60;99.90;;;;;;4995508;28;94973;-32
2022/10/13 12:25:20;;;;;;;29.35;24.48;;;13.60;99.90;;;;;;4995697;28;95701;-34
2022/10/13 12:27:49;;;;;;;35.35;25.58;;;13.60;99.90;;;;;;4995476;28;92128;-33
2022/10/13 12:30:36;;;;;;;44.00;25.58;;;13.60;99.90;;;;;;4995059;28;93244;-37
2022/10/13 12:33:16;;;;;;;33.30;25.47;;;13.60;99.90;;;;;;4994494;28;95572;-32
2022/10/13 12:35:42;;;;;;;29.50;22.98;;;13.60;99.90;;;;;;4994703;28;96807;-32
2022/10/13 12:38:17;;;;;;;30.55;26.15;;;13.50;99.90;;;;;;4996372;28;93955;-34
2022/10/13 12:40:43;;;;;;;33.97;23.83;;;13.50;99.90;;;;;;4994986;28;93444;-35
2022/10/13 12:43:15;;;;;;;30.00;24.83;;;13.50;99.90;;;;;;4996637;28;94753;-32
2022/10/13 12:45:42;;;;;;;29.58;24.35;;;13.50;99.90;;;;;;4994633;28;94642;-35
2022/10/13 12:48:34;;;;;;;33.25;24.65;;;13.50;99.90;;;;;;4995669;28;93819;-33